sensor_id;sensor_type;location;lat;lon;timestamp;P1;durP1;ratioP1;P2;durP2;ratioP2
15331;SDS011;7766;51.534;6.722;2023-05-01T00:00:39;4.67;;;2.43;;
15331;SDS011;7766;51.534;6.722;2023-05-01T00:01:40;4.40;;;2.67;;
15331;SDS011;7766;51.534;6.722;2023-05-01T00:02:41;6.83;;;2.57;;
15331;SDS011;7766;51.534;6.722;2023-05-01T00:03:42;5.03;;;2.60;;
15331;SDS011;7766;51.534;6.722;2023-05-01T00:04:43;5.20;;;2.70;;
15331;SDS011;7766;51.534;6.722;2023-05-01T00:05:44;8.87;;;4.43;;
15331;SDS011;7766;51.534;6.722;2023-05-01T00:06:46;8.57;;;5.83;;
15331;SDS011;7766;51.534;6.722;2023-05-01T00:07:47;8.73;;;5.80;;
15331;SDS011;7766;51.534;6.722;2023-05-01T00:08:48;6.50;;;4.00;;
15331;SDS011;7766;51.534;6.722;2023-05-01T00:09:50;11.60;;;6.60;;
15331;SDS011;7766;51.534;6.722;2023-05-01T00:10:51;10.67;;;6.50;;
15331;SDS011;7766;51.534;6.722;2023-05-01T00:11:52;9.60;;;5.10;;
15331;SDS011;7766;51.534;6.722;2023-05-01T00:12:53;8.13;;;3.50;;
15331;SDS011;7766;51.534;6.722;2023-05-01T00:13:54;11.23;;;6.70;;
15331;SDS011;7766;51.534;6.722;2023-05-01T00:14:54;12.37;;;7.57;;
15331;SDS011;7766;51.534;6.722;2023-05-01T00:15:55;9.00;;;5.17;;
15331;SDS011;7766;51.534;6.722;2023-05-01T00:16:57;9.20;;;3.97;;
15331;SDS011;7766;51.534;6.722;2023-05-01T00:17:58;5.60;;;2.93;;
15331;SDS011;7766;51.534;6.722;2023-05-01T00:18:59;5.17;;;2.63;;
15331;SDS011;7766;51.534;6.722;2023-05-01T00:20:00;6.50;;;2.70;;
15331;SDS011;7766;51.534;6.722;2023-05-01T00:21:01;4.13;;;2.50;;
15331;SDS011;7766;51.534;6.722;2023-05-01T00:22:02;5.10;;;2.70;;
15331;SDS011;7766;51.534;6.722;2023-05-01T00:23:02;6.77;;;2.80;;
15331;SDS011;7766;51.534;6.722;2023-05-01T00:24:04;7.53;;;2.60;;
15331;SDS011;7766;51.534;6.722;2023-05-01T00:25:05;4.23;;;2.30;;
15331;SDS011;7766;51.534;6.722;2023-05-01T00:26:06;4.20;;;3.00;;
15331;SDS011;7766;51.534;6.722;2023-05-01T00:27:08;5.27;;;2.50;;
15331;SDS011;7766;51.534;6.722;2023-05-01T00:28:09;4.80;;;2.83;;
15331;SDS011;7766;51.534;6.722;2023-05-01T00:29:10;6.27;;;2.80;;
15331;SDS011;7766;51.534;6.722;2023-05-01T00:30:11;7.30;;;2.93;;
15331;SDS011;7766;51.534;6.722;2023-05-01T00:31:12;8.17;;;2.90;;
15331;SDS011;7766;51.534;6.722;2023-05-01T00:32:13;4.83;;;2.60;;
15331;SDS011;7766;51.534;6.722;2023-05-01T00:33:14;4.70;;;3.13;;
15331;SDS011;7766;51.534;6.722;2023-05-01T00:34:15;6.57;;;3.10;;
15331;SDS011;7766;51.534;6.722;2023-05-01T00:35:16;6.43;;;2.93;;
15331;SDS011;7766;51.534;6.722;2023-05-01T00:36:17;4.63;;;3.10;;
15331;SDS011;7766;51.534;6.722;2023-05-01T00:37:18;7.90;;;3.77;;
15331;SDS011;7766;51.534;6.722;2023-05-01T00:38:20;7.27;;;3.07;;
15331;SDS011;7766;51.534;6.722;2023-05-01T00:39:22;6.20;;;3.13;;
15331;SDS011;7766;51.534;6.722;2023-05-01T00:40:23;5.37;;;3.00;;
15331;SDS011;7766;51.534;6.722;2023-05-01T00:41:24;5.77;;;3.30;;
15331;SDS011;7766;51.534;6.722;2023-05-01T00:42:26;8.13;;;3.23;;
15331;SDS011;7766;51.534;6.722;2023-05-01T00:43:27;8.57;;;3.33;;
15331;SDS011;7766;51.534;6.722;2023-05-01T00:44:28;7.47;;;3.13;;
15331;SDS011;7766;51.534;6.722;2023-05-01T00:45:29;6.90;;;2.70;;
15331;SDS011;7766;51.534;6.722;2023-05-01T00:46:30;7.20;;;3.40;;
15331;SDS011;7766;51.534;6.722;2023-05-01T00:47:36;3.93;;;3.07;;
15331;SDS011;7766;51.534;6.722;2023-05-01T00:48:37;5.90;;;3.10;;
15331;SDS011;7766;51.534;6.722;2023-05-01T00:49:40;7.50;;;3.30;;
15331;SDS011;7766;51.534;6.722;2023-05-01T00:50:43;11.60;;;3.63;;
15331;SDS011;7766;51.534;6.722;2023-05-01T00:51:45;9.33;;;3.60;;
15331;SDS011;7766;51.534;6.722;2023-05-01T00:52:52;7.47;;;3.27;;
15331;SDS011;7766;51.534;6.722;2023-05-01T00:53:53;5.87;;;3.30;;
15331;SDS011;7766;51.534;6.722;2023-05-01T00:54:54;5.20;;;3.47;;
15331;SDS011;7766;51.534;6.722;2023-05-01T00:55:57;6.10;;;3.53;;
15331;SDS011;7766;51.534;6.722;2023-05-01T00:56:59;8.37;;;3.60;;
15331;SDS011;7766;51.534;6.722;2023-05-01T00:58:01;6.50;;;3.00;;
15331;SDS011;7766;51.534;6.722;2023-05-01T00:59:03;8.90;;;3.37;;
15331;SDS011;7766;51.534;6.722;2023-05-01T01:00:04;5.90;;;2.93;;
15331;SDS011;7766;51.534;6.722;2023-05-01T01:01:07;9.37;;;3.40;;
15331;SDS011;7766;51.534;6.722;2023-05-01T01:02:08;8.90;;;3.27;;
15331;SDS011;7766;51.534;6.722;2023-05-01T01:03:11;8.33;;;2.97;;
15331;SDS011;7766;51.534;6.722;2023-05-01T01:04:12;6.27;;;2.73;;
15331;SDS011;7766;51.534;6.722;2023-05-01T01:05:13;7.17;;;3.60;;
15331;SDS011;7766;51.534;6.722;2023-05-01T01:07:48;7.87;;;3.33;;
15331;SDS011;7766;51.534;6.722;2023-05-01T01:09:10;7.43;;;3.70;;
15331;SDS011;7766;51.534;6.722;2023-05-01T01:10:22;14.40;;;7.57;;
15331;SDS011;7766;51.534;6.722;2023-05-01T01:13:08;6.47;;;3.37;;
15331;SDS011;7766;51.534;6.722;2023-05-01T01:14:12;9.53;;;4.10;;
15331;SDS011;7766;51.534;6.722;2023-05-01T01:15:32;9.00;;;4.13;;
15331;SDS011;7766;51.534;6.722;2023-05-01T01:16:40;4.23;;;3.70;;
15331;SDS011;7766;51.534;6.722;2023-05-01T01:18:08;4.10;;;3.10;;
15331;SDS011;7766;51.534;6.722;2023-05-01T01:21:07;9.13;;;4.03;;
15331;SDS011;7766;51.534;6.722;2023-05-01T01:22:22;5.77;;;3.20;;
15331;SDS011;7766;51.534;6.722;2023-05-01T01:26:42;8.33;;;3.20;;
15331;SDS011;7766;51.534;6.722;2023-05-01T01:30:06;5.57;;;3.57;;
15331;SDS011;7766;51.534;6.722;2023-05-01T01:31:20;7.60;;;3.47;;
15331;SDS011;7766;51.534;6.722;2023-05-01T01:33:04;5.23;;;3.67;;
15331;SDS011;7766;51.534;6.722;2023-05-01T01:34:19;9.90;;;3.70;;
15331;SDS011;7766;51.534;6.722;2023-05-01T01:35:38;5.47;;;3.30;;
15331;SDS011;7766;51.534;6.722;2023-05-01T01:36:48;7.93;;;3.87;;
15331;SDS011;7766;51.534;6.722;2023-05-01T01:38:05;6.23;;;3.47;;
15331;SDS011;7766;51.534;6.722;2023-05-01T01:39:27;6.20;;;3.10;;
15331;SDS011;7766;51.534;6.722;2023-05-01T01:40:38;8.87;;;3.57;;
15331;SDS011;7766;51.534;6.722;2023-05-01T01:41:52;6.03;;;3.03;;
15331;SDS011;7766;51.534;6.722;2023-05-01T01:43:03;8.10;;;4.10;;
15331;SDS011;7766;51.534;6.722;2023-05-01T01:44:16;5.00;;;3.30;;
15331;SDS011;7766;51.534;6.722;2023-05-01T01:45:24;11.37;;;3.70;;
15331;SDS011;7766;51.534;6.722;2023-05-01T01:46:40;7.40;;;3.37;;
15331;SDS011;7766;51.534;6.722;2023-05-01T01:47:42;7.80;;;3.53;;
15331;SDS011;7766;51.534;6.722;2023-05-01T01:48:45;9.07;;;3.37;;
15331;SDS011;7766;51.534;6.722;2023-05-01T01:49:50;5.37;;;3.57;;
15331;SDS011;7766;51.534;6.722;2023-05-01T01:50:52;7.77;;;3.80;;
15331;SDS011;7766;51.534;6.722;2023-05-01T01:51:56;9.20;;;3.93;;
15331;SDS011;7766;51.534;6.722;2023-05-01T01:53:00;9.50;;;4.23;;
15331;SDS011;7766;51.534;6.722;2023-05-01T01:54:03;6.37;;;4.27;;
15331;SDS011;7766;51.534;6.722;2023-05-01T01:55:06;7.57;;;4.07;;
15331;SDS011;7766;51.534;6.722;2023-05-01T01:56:10;6.60;;;3.80;;
15331;SDS011;7766;51.534;6.722;2023-05-01T01:57:13;6.17;;;3.73;;
15331;SDS011;7766;51.534;6.722;2023-05-01T01:58:17;4.93;;;3.37;;
15331;SDS011;7766;51.534;6.722;2023-05-01T01:59:25;8.33;;;3.83;;
15331;SDS011;7766;51.534;6.722;2023-05-01T02:00:27;5.70;;;3.47;;
15331;SDS011;7766;51.534;6.722;2023-05-01T02:01:29;5.27;;;3.43;;
15331;SDS011;7766;51.534;6.722;2023-05-01T02:02:31;8.53;;;3.70;;
15331;SDS011;7766;51.534;6.722;2023-05-01T02:03:32;6.77;;;3.70;;
15331;SDS011;7766;51.534;6.722;2023-05-01T02:04:37;8.63;;;3.93;;
15331;SDS011;7766;51.534;6.722;2023-05-01T02:05:41;7.07;;;4.30;;
15331;SDS011;7766;51.534;6.722;2023-05-01T02:06:43;8.17;;;3.90;;
15331;SDS011;7766;51.534;6.722;2023-05-01T02:07:46;7.77;;;3.77;;
15331;SDS011;7766;51.534;6.722;2023-05-01T02:08:49;7.50;;;4.00;;
15331;SDS011;7766;51.534;6.722;2023-05-01T02:09:52;7.60;;;4.50;;
15331;SDS011;7766;51.534;6.722;2023-05-01T02:10:55;6.00;;;3.70;;
15331;SDS011;7766;51.534;6.722;2023-05-01T02:11:58;6.57;;;3.50;;
15331;SDS011;7766;51.534;6.722;2023-05-01T02:13:01;6.23;;;3.87;;
15331;SDS011;7766;51.534;6.722;2023-05-01T02:14:03;6.40;;;3.40;;
15331;SDS011;7766;51.534;6.722;2023-05-01T02:15:05;6.97;;;4.07;;
15331;SDS011;7766;51.534;6.722;2023-05-01T02:16:08;6.47;;;3.63;;
15331;SDS011;7766;51.534;6.722;2023-05-01T02:17:10;6.93;;;4.13;;
15331;SDS011;7766;51.534;6.722;2023-05-01T02:18:13;7.53;;;3.83;;
15331;SDS011;7766;51.534;6.722;2023-05-01T02:19:15;6.63;;;3.53;;
15331;SDS011;7766;51.534;6.722;2023-05-01T02:20:18;7.67;;;4.20;;
15331;SDS011;7766;51.534;6.722;2023-05-01T02:21:20;6.50;;;3.77;;
15331;SDS011;7766;51.534;6.722;2023-05-01T02:22:22;5.83;;;3.57;;
15331;SDS011;7766;51.534;6.722;2023-05-01T02:23:26;6.73;;;3.97;;
15331;SDS011;7766;51.534;6.722;2023-05-01T02:24:28;6.60;;;3.83;;
15331;SDS011;7766;51.534;6.722;2023-05-01T02:25:31;10.80;;;4.00;;
15331;SDS011;7766;51.534;6.722;2023-05-01T02:26:40;6.53;;;3.27;;
15331;SDS011;7766;51.534;6.722;2023-05-01T02:27:58;7.47;;;3.43;;
15331;SDS011;7766;51.534;6.722;2023-05-01T02:29:02;11.30;;;4.30;;
15331;SDS011;7766;51.534;6.722;2023-05-01T02:30:03;6.87;;;3.43;;
15331;SDS011;7766;51.534;6.722;2023-05-01T02:31:06;7.87;;;3.67;;
15331;SDS011;7766;51.534;6.722;2023-05-01T02:32:07;7.43;;;4.00;;
15331;SDS011;7766;51.534;6.722;2023-05-01T02:33:08;6.40;;;4.00;;
15331;SDS011;7766;51.534;6.722;2023-05-01T02:34:09;9.37;;;3.40;;
15331;SDS011;7766;51.534;6.722;2023-05-01T02:35:11;6.13;;;3.67;;
15331;SDS011;7766;51.534;6.722;2023-05-01T02:36:12;7.50;;;3.47;;
15331;SDS011;7766;51.534;6.722;2023-05-01T02:37:13;8.90;;;3.97;;
15331;SDS011;7766;51.534;6.722;2023-05-01T02:38:15;9.40;;;4.00;;
15331;SDS011;7766;51.534;6.722;2023-05-01T02:39:16;10.00;;;3.90;;
15331;SDS011;7766;51.534;6.722;2023-05-01T02:40:17;11.80;;;4.70;;
15331;SDS011;7766;51.534;6.722;2023-05-01T02:41:21;9.37;;;4.13;;
15331;SDS011;7766;51.534;6.722;2023-05-01T02:42:25;7.33;;;4.23;;
15331;SDS011;7766;51.534;6.722;2023-05-01T02:43:27;8.97;;;4.00;;
15331;SDS011;7766;51.534;6.722;2023-05-01T02:44:36;5.43;;;3.43;;
15331;SDS011;7766;51.534;6.722;2023-05-01T02:45:44;5.83;;;3.70;;
15331;SDS011;7766;51.534;6.722;2023-05-01T02:46:46;4.77;;;3.47;;
15331;SDS011;7766;51.534;6.722;2023-05-01T02:47:50;7.00;;;3.97;;
15331;SDS011;7766;51.534;6.722;2023-05-01T02:48:53;7.60;;;3.73;;
15331;SDS011;7766;51.534;6.722;2023-05-01T02:49:56;5.80;;;3.13;;
15331;SDS011;7766;51.534;6.722;2023-05-01T02:50:59;6.17;;;3.83;;
15331;SDS011;7766;51.534;6.722;2023-05-01T02:52:02;7.30;;;3.73;;
15331;SDS011;7766;51.534;6.722;2023-05-01T02:53:04;7.63;;;3.77;;
15331;SDS011;7766;51.534;6.722;2023-05-01T02:54:05;6.80;;;3.40;;
15331;SDS011;7766;51.534;6.722;2023-05-01T02:55:07;7.53;;;3.97;;
15331;SDS011;7766;51.534;6.722;2023-05-01T02:56:09;6.93;;;3.97;;
15331;SDS011;7766;51.534;6.722;2023-05-01T02:57:10;9.37;;;3.57;;
15331;SDS011;7766;51.534;6.722;2023-05-01T02:58:13;8.90;;;3.80;;
15331;SDS011;7766;51.534;6.722;2023-05-01T02:59:15;10.33;;;4.77;;
15331;SDS011;7766;51.534;6.722;2023-05-01T03:00:16;10.20;;;3.97;;
15331;SDS011;7766;51.534;6.722;2023-05-01T03:01:18;9.47;;;4.57;;
15331;SDS011;7766;51.534;6.722;2023-05-01T03:02:19;13.10;;;4.90;;
15331;SDS011;7766;51.534;6.722;2023-05-01T03:03:20;7.27;;;3.83;;
15331;SDS011;7766;51.534;6.722;2023-05-01T03:04:21;8.23;;;4.30;;
15331;SDS011;7766;51.534;6.722;2023-05-01T03:05:22;6.33;;;4.00;;
15331;SDS011;7766;51.534;6.722;2023-05-01T03:06:24;7.17;;;4.20;;
15331;SDS011;7766;51.534;6.722;2023-05-01T03:07:27;8.03;;;4.30;;
15331;SDS011;7766;51.534;6.722;2023-05-01T03:08:33;5.40;;;3.97;;
15331;SDS011;7766;51.534;6.722;2023-05-01T03:09:35;9.67;;;4.23;;
15331;SDS011;7766;51.534;6.722;2023-05-01T03:10:38;11.57;;;4.17;;
15331;SDS011;7766;51.534;6.722;2023-05-01T03:11:41;8.17;;;4.47;;
15331;SDS011;7766;51.534;6.722;2023-05-01T03:12:42;6.43;;;3.97;;
15331;SDS011;7766;51.534;6.722;2023-05-01T03:13:43;6.40;;;3.73;;
15331;SDS011;7766;51.534;6.722;2023-05-01T03:14:46;8.83;;;4.63;;
15331;SDS011;7766;51.534;6.722;2023-05-01T03:15:47;7.73;;;4.10;;
15331;SDS011;7766;51.534;6.722;2023-05-01T03:16:48;6.43;;;3.90;;
15331;SDS011;7766;51.534;6.722;2023-05-01T03:17:49;8.30;;;4.40;;
15331;SDS011;7766;51.534;6.722;2023-05-01T03:18:50;5.77;;;4.30;;
15331;SDS011;7766;51.534;6.722;2023-05-01T03:19:51;5.37;;;3.80;;
15331;SDS011;7766;51.534;6.722;2023-05-01T03:20:53;7.00;;;4.10;;
15331;SDS011;7766;51.534;6.722;2023-05-01T03:21:55;17.00;;;4.43;;
15331;SDS011;7766;51.534;6.722;2023-05-01T03:22:57;7.43;;;3.80;;
15331;SDS011;7766;51.534;6.722;2023-05-01T03:23:58;8.23;;;4.63;;
15331;SDS011;7766;51.534;6.722;2023-05-01T03:24:59;9.27;;;4.83;;
15331;SDS011;7766;51.534;6.722;2023-05-01T03:26:00;8.30;;;4.53;;
15331;SDS011;7766;51.534;6.722;2023-05-01T03:27:01;7.80;;;3.93;;
15331;SDS011;7766;51.534;6.722;2023-05-01T03:28:02;7.80;;;4.00;;
15331;SDS011;7766;51.534;6.722;2023-05-01T03:29:03;11.73;;;5.10;;
15331;SDS011;7766;51.534;6.722;2023-05-01T03:30:04;8.43;;;4.13;;
15331;SDS011;7766;51.534;6.722;2023-05-01T03:31:07;6.90;;;4.60;;
15331;SDS011;7766;51.534;6.722;2023-05-01T03:32:08;12.37;;;4.60;;
15331;SDS011;7766;51.534;6.722;2023-05-01T03:33:09;9.13;;;4.47;;
15331;SDS011;7766;51.534;6.722;2023-05-01T03:34:10;11.07;;;4.70;;
15331;SDS011;7766;51.534;6.722;2023-05-01T03:35:11;4.90;;;3.70;;
15331;SDS011;7766;51.534;6.722;2023-05-01T03:36:12;5.33;;;4.00;;
15331;SDS011;7766;51.534;6.722;2023-05-01T03:37:13;7.73;;;4.17;;
15331;SDS011;7766;51.534;6.722;2023-05-01T03:38:14;6.50;;;4.83;;
15331;SDS011;7766;51.534;6.722;2023-05-01T03:39:15;7.47;;;4.10;;
15331;SDS011;7766;51.534;6.722;2023-05-01T03:40:16;10.83;;;4.20;;
15331;SDS011;7766;51.534;6.722;2023-05-01T03:41:18;7.50;;;4.30;;
15331;SDS011;7766;51.534;6.722;2023-05-01T03:42:18;5.37;;;3.83;;
15331;SDS011;7766;51.534;6.722;2023-05-01T03:43:20;5.73;;;4.03;;
15331;SDS011;7766;51.534;6.722;2023-05-01T03:44:21;5.07;;;3.73;;
15331;SDS011;7766;51.534;6.722;2023-05-01T03:45:22;6.87;;;4.20;;
15331;SDS011;7766;51.534;6.722;2023-05-01T03:46:23;6.37;;;3.90;;
15331;SDS011;7766;51.534;6.722;2023-05-01T03:47:24;5.03;;;3.80;;
15331;SDS011;7766;51.534;6.722;2023-05-01T03:48:26;6.37;;;4.17;;
15331;SDS011;7766;51.534;6.722;2023-05-01T03:49:27;5.80;;;3.80;;
15331;SDS011;7766;51.534;6.722;2023-05-01T03:50:28;12.37;;;4.67;;
15331;SDS011;7766;51.534;6.722;2023-05-01T03:51:29;5.60;;;3.80;;
15331;SDS011;7766;51.534;6.722;2023-05-01T03:52:31;8.77;;;4.93;;
15331;SDS011;7766;51.534;6.722;2023-05-01T03:53:32;9.20;;;4.20;;
15331;SDS011;7766;51.534;6.722;2023-05-01T03:54:33;8.80;;;4.43;;
15331;SDS011;7766;51.534;6.722;2023-05-01T03:55:34;8.83;;;4.20;;
15331;SDS011;7766;51.534;6.722;2023-05-01T03:56:35;6.40;;;4.07;;
15331;SDS011;7766;51.534;6.722;2023-05-01T03:57:37;8.33;;;4.17;;
15331;SDS011;7766;51.534;6.722;2023-05-01T03:58:38;4.37;;;3.53;;
15331;SDS011;7766;51.534;6.722;2023-05-01T03:59:39;7.73;;;4.60;;
15331;SDS011;7766;51.534;6.722;2023-05-01T04:00:42;6.27;;;3.63;;
15331;SDS011;7766;51.534;6.722;2023-05-01T04:01:43;5.40;;;3.67;;
15331;SDS011;7766;51.534;6.722;2023-05-01T04:02:44;7.03;;;3.83;;
15331;SDS011;7766;51.534;6.722;2023-05-01T04:03:46;8.37;;;4.73;;
15331;SDS011;7766;51.534;6.722;2023-05-01T04:04:47;8.03;;;4.10;;
15331;SDS011;7766;51.534;6.722;2023-05-01T04:05:48;7.07;;;4.10;;
15331;SDS011;7766;51.534;6.722;2023-05-01T04:06:49;8.50;;;4.03;;
15331;SDS011;7766;51.534;6.722;2023-05-01T04:07:50;8.23;;;5.23;;
15331;SDS011;7766;51.534;6.722;2023-05-01T04:08:51;9.20;;;4.87;;
15331;SDS011;7766;51.534;6.722;2023-05-01T04:09:52;9.03;;;4.30;;
15331;SDS011;7766;51.534;6.722;2023-05-01T04:10:53;9.77;;;4.70;;
15331;SDS011;7766;51.534;6.722;2023-05-01T04:11:54;7.40;;;4.50;;
15331;SDS011;7766;51.534;6.722;2023-05-01T04:12:55;7.43;;;4.23;;
15331;SDS011;7766;51.534;6.722;2023-05-01T04:13:56;6.33;;;4.30;;
15331;SDS011;7766;51.534;6.722;2023-05-01T04:14:57;7.40;;;4.53;;
15331;SDS011;7766;51.534;6.722;2023-05-01T04:15:58;7.67;;;4.37;;
15331;SDS011;7766;51.534;6.722;2023-05-01T04:16:59;7.17;;;4.30;;
15331;SDS011;7766;51.534;6.722;2023-05-01T04:18:00;8.17;;;4.37;;
15331;SDS011;7766;51.534;6.722;2023-05-01T04:19:01;5.17;;;4.03;;
15331;SDS011;7766;51.534;6.722;2023-05-01T04:20:03;9.13;;;4.70;;
15331;SDS011;7766;51.534;6.722;2023-05-01T04:21:05;6.90;;;4.47;;
15331;SDS011;7766;51.534;6.722;2023-05-01T04:22:06;6.80;;;4.53;;
15331;SDS011;7766;51.534;6.722;2023-05-01T04:23:07;8.43;;;4.80;;
15331;SDS011;7766;51.534;6.722;2023-05-01T04:24:08;8.07;;;4.17;;
15331;SDS011;7766;51.534;6.722;2023-05-01T04:25:09;6.20;;;4.13;;
15331;SDS011;7766;51.534;6.722;2023-05-01T04:26:10;7.87;;;4.57;;
15331;SDS011;7766;51.534;6.722;2023-05-01T04:27:11;7.83;;;4.60;;
15331;SDS011;7766;51.534;6.722;2023-05-01T04:28:12;6.33;;;4.13;;
15331;SDS011;7766;51.534;6.722;2023-05-01T04:29:13;7.27;;;3.97;;
15331;SDS011;7766;51.534;6.722;2023-05-01T04:30:14;8.53;;;4.60;;
15331;SDS011;7766;51.534;6.722;2023-05-01T04:31:15;8.67;;;4.73;;
15331;SDS011;7766;51.534;6.722;2023-05-01T04:32:16;8.63;;;4.93;;
15331;SDS011;7766;51.534;6.722;2023-05-01T04:33:17;7.47;;;4.97;;
15331;SDS011;7766;51.534;6.722;2023-05-01T04:34:18;8.77;;;4.57;;
15331;SDS011;7766;51.534;6.722;2023-05-01T04:35:19;9.03;;;4.60;;
15331;SDS011;7766;51.534;6.722;2023-05-01T04:36:20;7.37;;;4.03;;
15331;SDS011;7766;51.534;6.722;2023-05-01T04:37:21;6.97;;;4.10;;
15331;SDS011;7766;51.534;6.722;2023-05-01T04:38:22;6.60;;;4.03;;
15331;SDS011;7766;51.534;6.722;2023-05-01T04:39:23;8.23;;;4.50;;
15331;SDS011;7766;51.534;6.722;2023-05-01T04:40:25;6.63;;;4.40;;
15331;SDS011;7766;51.534;6.722;2023-05-01T04:41:26;6.33;;;4.40;;
15331;SDS011;7766;51.534;6.722;2023-05-01T04:42:31;11.07;;;4.23;;
15331;SDS011;7766;51.534;6.722;2023-05-01T04:43:32;5.07;;;3.90;;
15331;SDS011;7766;51.534;6.722;2023-05-01T04:44:33;9.40;;;4.60;;
15331;SDS011;7766;51.534;6.722;2023-05-01T04:45:39;8.43;;;4.30;;
15331;SDS011;7766;51.534;6.722;2023-05-01T04:46:39;11.87;;;4.90;;
15331;SDS011;7766;51.534;6.722;2023-05-01T04:47:40;7.87;;;4.87;;
15331;SDS011;7766;51.534;6.722;2023-05-01T04:48:41;6.80;;;4.40;;
15331;SDS011;7766;51.534;6.722;2023-05-01T04:49:42;7.40;;;3.93;;
15331;SDS011;7766;51.534;6.722;2023-05-01T04:50:43;8.40;;;4.00;;
15331;SDS011;7766;51.534;6.722;2023-05-01T04:51:44;10.80;;;4.53;;
15331;SDS011;7766;51.534;6.722;2023-05-01T04:52:46;6.83;;;4.23;;
15331;SDS011;7766;51.534;6.722;2023-05-01T04:53:47;7.57;;;4.17;;
15331;SDS011;7766;51.534;6.722;2023-05-01T04:54:48;9.27;;;4.07;;
15331;SDS011;7766;51.534;6.722;2023-05-01T04:55:49;6.47;;;4.20;;
15331;SDS011;7766;51.534;6.722;2023-05-01T04:56:50;7.30;;;4.33;;
15331;SDS011;7766;51.534;6.722;2023-05-01T04:57:51;9.20;;;4.83;;
15331;SDS011;7766;51.534;6.722;2023-05-01T04:58:52;8.40;;;4.57;;
15331;SDS011;7766;51.534;6.722;2023-05-01T04:59:53;7.57;;;5.00;;
15331;SDS011;7766;51.534;6.722;2023-05-01T05:00:54;5.77;;;4.60;;
15331;SDS011;7766;51.534;6.722;2023-05-01T05:01:55;4.73;;;3.80;;
15331;SDS011;7766;51.534;6.722;2023-05-01T05:02:56;7.20;;;4.60;;
15331;SDS011;7766;51.534;6.722;2023-05-01T05:03:57;10.23;;;4.43;;
15331;SDS011;7766;51.534;6.722;2023-05-01T05:04:58;6.73;;;4.40;;
15331;SDS011;7766;51.534;6.722;2023-05-01T05:05:59;9.07;;;4.77;;
15331;SDS011;7766;51.534;6.722;2023-05-01T05:07:00;6.77;;;4.90;;
15331;SDS011;7766;51.534;6.722;2023-05-01T05:08:01;9.33;;;4.90;;
15331;SDS011;7766;51.534;6.722;2023-05-01T05:09:02;6.70;;;4.80;;
15331;SDS011;7766;51.534;6.722;2023-05-01T05:10:03;9.73;;;4.93;;
15331;SDS011;7766;51.534;6.722;2023-05-01T05:11:04;8.00;;;5.17;;
15331;SDS011;7766;51.534;6.722;2023-05-01T05:12:05;8.43;;;4.60;;
15331;SDS011;7766;51.534;6.722;2023-05-01T05:13:06;5.03;;;4.10;;
15331;SDS011;7766;51.534;6.722;2023-05-01T05:14:08;7.33;;;4.23;;
15331;SDS011;7766;51.534;6.722;2023-05-01T05:15:10;6.40;;;4.10;;
15331;SDS011;7766;51.534;6.722;2023-05-01T05:16:11;6.50;;;4.30;;
15331;SDS011;7766;51.534;6.722;2023-05-01T05:17:12;6.53;;;3.97;;
15331;SDS011;7766;51.534;6.722;2023-05-01T05:18:13;7.00;;;4.30;;
15331;SDS011;7766;51.534;6.722;2023-05-01T05:19:14;9.27;;;4.87;;
15331;SDS011;7766;51.534;6.722;2023-05-01T05:20:16;8.43;;;4.60;;
15331;SDS011;7766;51.534;6.722;2023-05-01T05:21:17;12.70;;;5.13;;
15331;SDS011;7766;51.534;6.722;2023-05-01T05:22:18;7.90;;;4.97;;
15331;SDS011;7766;51.534;6.722;2023-05-01T05:23:19;7.67;;;4.57;;
15331;SDS011;7766;51.534;6.722;2023-05-01T05:24:20;7.37;;;3.97;;
15331;SDS011;7766;51.534;6.722;2023-05-01T05:25:21;8.43;;;4.53;;
15331;SDS011;7766;51.534;6.722;2023-05-01T05:26:23;8.07;;;4.83;;
15331;SDS011;7766;51.534;6.722;2023-05-01T05:27:25;8.90;;;5.10;;
15331;SDS011;7766;51.534;6.722;2023-05-01T05:28:27;7.13;;;4.67;;
15331;SDS011;7766;51.534;6.722;2023-05-01T05:29:29;10.20;;;5.10;;
15331;SDS011;7766;51.534;6.722;2023-05-01T05:30:30;7.03;;;4.10;;
15331;SDS011;7766;51.534;6.722;2023-05-01T05:31:31;9.67;;;5.00;;
15331;SDS011;7766;51.534;6.722;2023-05-01T05:32:32;7.77;;;4.73;;
15331;SDS011;7766;51.534;6.722;2023-05-01T05:33:33;6.47;;;4.63;;
15331;SDS011;7766;51.534;6.722;2023-05-01T05:34:34;7.03;;;4.23;;
15331;SDS011;7766;51.534;6.722;2023-05-01T05:35:35;8.17;;;4.20;;
15331;SDS011;7766;51.534;6.722;2023-05-01T05:36:36;7.60;;;4.30;;
15331;SDS011;7766;51.534;6.722;2023-05-01T05:37:37;11.07;;;4.73;;
15331;SDS011;7766;51.534;6.722;2023-05-01T05:38:38;5.47;;;4.27;;
15331;SDS011;7766;51.534;6.722;2023-05-01T05:39:39;6.97;;;4.03;;
15331;SDS011;7766;51.534;6.722;2023-05-01T05:40:40;6.83;;;4.73;;
15331;SDS011;7766;51.534;6.722;2023-05-01T05:41:41;8.93;;;4.90;;
15331;SDS011;7766;51.534;6.722;2023-05-01T05:42:42;10.97;;;4.93;;
15331;SDS011;7766;51.534;6.722;2023-05-01T05:43:43;9.23;;;4.80;;
15331;SDS011;7766;51.534;6.722;2023-05-01T05:44:44;9.27;;;5.30;;
15331;SDS011;7766;51.534;6.722;2023-05-01T05:45:45;6.37;;;4.10;;
15331;SDS011;7766;51.534;6.722;2023-05-01T05:46:46;6.87;;;4.63;;
15331;SDS011;7766;51.534;6.722;2023-05-01T05:47:47;7.57;;;4.60;;
15331;SDS011;7766;51.534;6.722;2023-05-01T05:48:48;8.00;;;5.03;;
15331;SDS011;7766;51.534;6.722;2023-05-01T05:49:49;7.13;;;4.67;;
15331;SDS011;7766;51.534;6.722;2023-05-01T05:50:50;10.67;;;4.93;;
15331;SDS011;7766;51.534;6.722;2023-05-01T05:51:51;6.77;;;4.20;;
15331;SDS011;7766;51.534;6.722;2023-05-01T05:52:52;7.17;;;4.60;;
15331;SDS011;7766;51.534;6.722;2023-05-01T05:53:53;8.13;;;4.80;;
15331;SDS011;7766;51.534;6.722;2023-05-01T05:54:54;7.90;;;4.27;;
15331;SDS011;7766;51.534;6.722;2023-05-01T05:55:55;9.30;;;5.13;;
15331;SDS011;7766;51.534;6.722;2023-05-01T05:56:56;5.13;;;4.30;;
15331;SDS011;7766;51.534;6.722;2023-05-01T05:57:57;7.07;;;4.70;;
15331;SDS011;7766;51.534;6.722;2023-05-01T05:58:57;5.17;;;4.27;;
15331;SDS011;7766;51.534;6.722;2023-05-01T06:00:02;7.97;;;4.63;;
15331;SDS011;7766;51.534;6.722;2023-05-01T06:01:04;9.17;;;4.50;;
15331;SDS011;7766;51.534;6.722;2023-05-01T06:02:08;8.57;;;4.67;;
15331;SDS011;7766;51.534;6.722;2023-05-01T06:03:09;6.70;;;3.80;;
15331;SDS011;7766;51.534;6.722;2023-05-01T06:04:10;5.60;;;4.00;;
15331;SDS011;7766;51.534;6.722;2023-05-01T06:05:12;8.10;;;4.47;;
15331;SDS011;7766;51.534;6.722;2023-05-01T06:06:13;11.73;;;5.30;;
15331;SDS011;7766;51.534;6.722;2023-05-01T06:07:15;7.37;;;4.83;;
15331;SDS011;7766;51.534;6.722;2023-05-01T06:08:16;9.90;;;5.17;;
15331;SDS011;7766;51.534;6.722;2023-05-01T06:09:17;6.50;;;4.20;;
15331;SDS011;7766;51.534;6.722;2023-05-01T06:10:19;7.70;;;4.17;;
15331;SDS011;7766;51.534;6.722;2023-05-01T06:11:20;6.33;;;4.40;;
15331;SDS011;7766;51.534;6.722;2023-05-01T06:12:21;7.67;;;4.37;;
15331;SDS011;7766;51.534;6.722;2023-05-01T06:13:23;9.20;;;5.20;;
15331;SDS011;7766;51.534;6.722;2023-05-01T06:14:24;9.53;;;4.33;;
15331;SDS011;7766;51.534;6.722;2023-05-01T06:15:24;8.87;;;4.47;;
15331;SDS011;7766;51.534;6.722;2023-05-01T06:16:26;4.80;;;4.23;;
15331;SDS011;7766;51.534;6.722;2023-05-01T06:17:27;7.07;;;4.37;;
15331;SDS011;7766;51.534;6.722;2023-05-01T06:18:28;9.50;;;4.83;;
15331;SDS011;7766;51.534;6.722;2023-05-01T06:19:29;11.67;;;4.67;;
15331;SDS011;7766;51.534;6.722;2023-05-01T06:20:30;11.37;;;4.93;;
15331;SDS011;7766;51.534;6.722;2023-05-01T06:21:31;8.50;;;3.90;;
15331;SDS011;7766;51.534;6.722;2023-05-01T06:22:33;6.37;;;3.93;;
15331;SDS011;7766;51.534;6.722;2023-05-01T06:23:34;8.37;;;4.70;;
15331;SDS011;7766;51.534;6.722;2023-05-01T06:24:35;7.97;;;4.73;;
15331;SDS011;7766;51.534;6.722;2023-05-01T06:25:38;7.23;;;4.67;;
15331;SDS011;7766;51.534;6.722;2023-05-01T06:26:39;10.90;;;4.83;;
15331;SDS011;7766;51.534;6.722;2023-05-01T06:27:40;7.43;;;4.37;;
15331;SDS011;7766;51.534;6.722;2023-05-01T06:28:41;9.80;;;5.23;;
15331;SDS011;7766;51.534;6.722;2023-05-01T06:29:42;10.77;;;5.07;;
15331;SDS011;7766;51.534;6.722;2023-05-01T06:30:43;10.27;;;4.97;;
15331;SDS011;7766;51.534;6.722;2023-05-01T06:31:44;12.23;;;5.27;;
15331;SDS011;7766;51.534;6.722;2023-05-01T06:32:46;10.30;;;5.67;;